NCAR-RAP Real-Time Weather Data

Output produced by METARs form (19 November 2018  11:26 UTC)
found at http://weather.rap.ucar.edu/surface/
 
Conditions at: KMLB observed 19 November 2018  11:11 UTC
Temperature: 21.1°C (70°F)
Dewpoint: 19.4°C (67°F) [RH = 90%]
Pressure (altimeter): 30.09 inches Hg (1019.0 mb)
Winds: from the N (350 degrees) at 6 MPH (5 knots; 2.6 m/s)
Visibility: 10 or more miles (16+ km)
Ceiling: 1800 feet AGL
Clouds: broken clouds at 1800 feet AGL
broken clouds at 4600 feet AGL
overcast cloud deck at 6500 feet AGL
Present Weather: no significant weather observed at this time
KMLB 191111Z 35005KT 10SM BKN018 BKN046 OVC065 21/19 A3009 RMK AO2 T02110194

Conditions at: KMLB observed 19 November 2018  10:53 UTC
Temperature: 20.6°C (69°F)
Dewpoint: 19.4°C (67°F) [RH = 93%]
Pressure (altimeter): 30.09 inches Hg (1019.0 mb)
[Sea-level pressure: 1018.7 mb]
Winds: from the NNW (340 degrees) at 5 MPH (4 knots; 2.1 m/s)
Visibility: 10 or more miles (16+ km)
Ceiling: 4500 feet AGL
Clouds: few clouds at 2000 feet AGL
broken clouds at 4500 feet AGL
overcast cloud deck at 6500 feet AGL
Present Weather: no significant weather observed at this time
KMLB 191053Z 34004KT 10SM FEW020 BKN045 OVC065 21/19 A3009 RMK AO2 RAB06E17 SLP187 P0000 T02060194

Conditions at: KMLB observed 19 November 2018  09:53 UTC
Temperature: 20.6°C (69°F)
Dewpoint: 19.4°C (67°F) [RH = 93%]
Pressure (altimeter): 30.07 inches Hg (1018.4 mb)
[Sea-level pressure: 1018.3 mb]
Winds: calm
Visibility: 10 or more miles (16+ km)
Ceiling: 5500 feet AGL
Clouds: scattered clouds at 4100 feet AGL
overcast cloud deck at 5500 feet AGL
Present Weather: automated observation with no human augmentation;
there may or may not be significant weather present at this time
KMLB 190953Z AUTO 00000KT 10SM SCT041 OVC055 21/19 A3007 RMK AO2 RAE35 SLP183 P0000 T02060194

Conditions at: KMLB observed 19 November 2018  08:53 UTC
Temperature: 21.1°C (70°F)
Dewpoint: 18.9°C (66°F) [RH = 87%]
Pressure (altimeter): 30.07 inches Hg (1018.4 mb)
[Sea-level pressure: 1018.0 mb]
Winds: calm
Visibility: 4 miles (6 km)
Ceiling: 4900 feet AGL
Clouds: few clouds at 3000 feet AGL
broken clouds at 4900 feet AGL
overcast cloud deck at 6000 feet AGL
Present Weather: +RA BR  (heavy rain, mist)
KMLB 190853Z AUTO 00000KT 4SM +RA BR FEW030 BKN049 OVC060 21/19 A3007 RMK AO2 RAB34 SLP180 P0002 60002 T02110189 55004

Conditions at: KMLB observed 19 November 2018  08:37 UTC
Temperature: 21.1°C (70°F)
Dewpoint: 18.9°C (66°F) [RH = 87%]
Pressure (altimeter): 30.07 inches Hg (1018.4 mb)
Winds: from the WSW (250 degrees) at 3 MPH (3 knots; 1.6 m/s)
Visibility: 10 or more miles (16+ km)
Ceiling: 3200 feet AGL
Clouds: scattered clouds at 2500 feet AGL
broken clouds at 3200 feet AGL
overcast cloud deck at 7000 feet AGL
Present Weather: -RA  (light rain)
KMLB 190837Z AUTO 25003KT 10SM -RA SCT025 BKN032 OVC070 21/19 A3007 RMK AO2 RAB34 P0000 T02110189

Conditions at: KMLB observed 19 November 2018  08:20 UTC
Temperature: 21.1°C (70°F)
Dewpoint: 18.9°C (66°F) [RH = 87%]
Pressure (altimeter): 30.07 inches Hg (1018.4 mb)
Winds: calm
Visibility: 10 or more miles (16+ km)
Ceiling: 2500 feet AGL
Clouds: broken clouds at 2500 feet AGL
broken clouds at 3000 feet AGL
overcast cloud deck at 8000 feet AGL
Present Weather: automated observation with no human augmentation;
there may or may not be significant weather present at this time
KMLB 190820Z AUTO 00000KT 10SM BKN025 BKN030 OVC080 21/19 A3007 RMK AO2 T02110189

Conditions at: KMLB observed 19 November 2018  07:53 UTC
Temperature: 20.6°C (69°F)
Dewpoint: 18.9°C (66°F) [RH = 90%]
Pressure (altimeter): 30.06 inches Hg (1018.0 mb)
[Sea-level pressure: 1018.0 mb]
Winds: from the NW (320 degrees) at 3 MPH (3 knots; 1.6 m/s)
Visibility: 10 or more miles (16+ km)
Ceiling: 10000 feet AGL
Clouds: scattered clouds at 8000 feet AGL
overcast cloud deck at 10000 feet AGL
Present Weather: automated observation with no human augmentation;
there may or may not be significant weather present at this time
KMLB 190753Z AUTO 32003KT 10SM SCT080 OVC100 21/19 A3006 RMK AO2 SLP180 T02060189

Conditions at: KMLB observed 19 November 2018  06:53 UTC
Temperature: 20.6°C (69°F)
Dewpoint: 18.9°C (66°F) [RH = 90%]
Pressure (altimeter): 30.07 inches Hg (1018.4 mb)
[Sea-level pressure: 1018.1 mb]
Winds: calm
Visibility: 10 or more miles (16+ km)
Ceiling: 9500 feet AGL
Clouds: few clouds at 3100 feet AGL
few clouds at 4500 feet AGL
overcast cloud deck at 9500 feet AGL
Present Weather: automated observation with no human augmentation;
there may or may not be significant weather present at this time
KMLB 190653Z AUTO 00000KT 10SM FEW031 FEW045 OVC095 21/19 A3007 RMK AO2 SLP181 T02060189

Conditions at: KMLB observed 19 November 2018  05:53 UTC
Temperature: 20.6°C (69°F)
Dewpoint: 18.3°C (65°F) [RH = 87%]
Pressure (altimeter): 30.08 inches Hg (1018.7 mb)
[Sea-level pressure: 1018.4 mb]
Winds: from the WNW (290 degrees) at 3 MPH (3 knots; 1.6 m/s)
Visibility: 10 or more miles (16+ km)
Ceiling: at least 12,000 feet AGL
Clouds: few clouds at 3000 feet AGL
few clouds at 3900 feet AGL
scattered clouds at 9000 feet AGL
Present Weather: automated observation with no human augmentation;
there may or may not be significant weather present at this time
KMLB 190553Z AUTO 29003KT 10SM FEW030 FEW039 SCT090 21/18 A3008 RMK AO2 SLP184 T02060183 10239 20206 57011

Conditions at: KMLB observed 19 November 2018  04:53 UTC
Temperature: 21.1°C (70°F)
Dewpoint: 18.9°C (66°F) [RH = 87%]
Pressure (altimeter): 30.08 inches Hg (1018.7 mb)
[Sea-level pressure: 1018.6 mb]
Winds: from the WNW (290 degrees) at 6 MPH (5 knots; 2.6 m/s)
Visibility: 10 or more miles (16+ km)
Ceiling: 4700 feet AGL
Clouds: broken clouds at 4700 feet AGL
broken clouds at 6500 feet AGL
Present Weather: automated observation with no human augmentation;
there may or may not be significant weather present at this time
KMLB 190453Z AUTO 29005KT 10SM BKN047 BKN065 21/19 A3008 RMK AO2 SLP186 T02110189 402720139

Conditions at: KMLB observed 19 November 2018  03:53 UTC
Temperature: 22.8°C (73°F)
Dewpoint: 18.9°C (66°F) [RH = 79%]
Pressure (altimeter): 30.10 inches Hg (1019.4 mb)
[Sea-level pressure: 1019.3 mb]
Winds: calm
Visibility: 10 or more miles (16+ km)
Ceiling: 9500 feet AGL
Clouds: scattered clouds at 4700 feet AGL
overcast cloud deck at 9500 feet AGL
Present Weather: no significant weather observed at this time
KMLB 190353Z 00000KT 10SM SCT047 OVC095 23/19 A3010 RMK AO2 SLP193 T02280189

Conditions at: KMLB observed 19 November 2018  02:53 UTC
Temperature: 23.3°C (74°F)
Dewpoint: 18.9°C (66°F) [RH = 76%]
Pressure (altimeter): 30.11 inches Hg (1019.7 mb)
[Sea-level pressure: 1019.5 mb]
Winds: from the E (90 degrees) at 6 MPH (5 knots; 2.6 m/s)
Visibility: 10 or more miles (16+ km)
Ceiling: 9500 feet AGL
Clouds: broken clouds at 9500 feet AGL
Present Weather: no significant weather observed at this time
KMLB 190253Z 09005KT 10SM BKN095 23/19 A3011 RMK AO2 SLP195 T02330189 51004

Conditions at: KMLB observed 19 November 2018  01:53 UTC
Temperature: 23.3°C (74°F)
Dewpoint: 18.9°C (66°F) [RH = 76%]
Pressure (altimeter): 30.11 inches Hg (1019.7 mb)
[Sea-level pressure: 1019.5 mb]
Winds: from the ENE (70 degrees) at 6 MPH (5 knots; 2.6 m/s)
Visibility: 10 or more miles (16+ km)
Ceiling: at least 12,000 feet AGL
Clouds: scattered clouds at 6500 feet AGL
Present Weather: no significant weather observed at this time
KMLB 190153Z 07005KT 10SM SCT065 23/19 A3011 RMK AO2 SLP195 T02330189

Conditions at: KMLB observed 19 November 2018  00:53 UTC
Temperature: 23.9°C (75°F)
Dewpoint: 19.4°C (67°F) [RH = 76%]
Pressure (altimeter): 30.10 inches Hg (1019.4 mb)
[Sea-level pressure: 1019.3 mb]
Winds: from the E (80 degrees) at 7 MPH (6 knots; 3.1 m/s)
Visibility: 10 or more miles (16+ km)
Ceiling: 8500 feet AGL
Clouds: overcast cloud deck at 8500 feet AGL
Present Weather: no significant weather observed at this time
KMLB 190053Z 08006KT 10SM OVC085 24/19 A3010 RMK AO2 SLP193 T02390194

Conditions at: KMLB observed 18 November 2018  23:53 UTC
Temperature: 23.9°C (75°F)
Dewpoint: 18.9°C (66°F) [RH = 74%]
Pressure (altimeter): 30.10 inches Hg (1019.4 mb)
[Sea-level pressure: 1019.1 mb]
Winds: from the E (80 degrees) at 8 MPH (7 knots; 3.6 m/s)
Visibility: 10 or more miles (16+ km)
Ceiling: at least 12,000 feet AGL
Clouds: scattered clouds at 2500 feet AGL
Present Weather: no significant weather observed at this time
KMLB 182353Z 08007KT 10SM SCT025 24/19 A3010 RMK AO2 SLP191 T02390189 10267 20233 53002

Conditions at: KMLB observed 18 November 2018  22:53 UTC
Temperature: 23.9°C (75°F)
Dewpoint: 19.4°C (67°F) [RH = 76%]
Pressure (altimeter): 30.08 inches Hg (1018.7 mb)
[Sea-level pressure: 1018.7 mb]
Winds: from the E (80 degrees) at 8 MPH (7 knots; 3.6 m/s)
Visibility: 10 or more miles (16+ km)
Ceiling: at least 12,000 feet AGL
Clouds: few clouds at 3300 feet AGL
scattered clouds at 9500 feet AGL
Present Weather: no significant weather observed at this time
KMLB 182253Z 08007KT 10SM FEW033 SCT095 24/19 A3008 RMK AO2 SLP187 T02390194

Conditions at: KMLB observed 18 November 2018  21:53 UTC
Temperature: 24.4°C (76°F)
Dewpoint: 19.4°C (67°F) [RH = 74%]
Pressure (altimeter): 30.08 inches Hg (1018.7 mb)
[Sea-level pressure: 1018.6 mb]
Winds: from the ENE (70 degrees) at 9 MPH (8 knots; 4.2 m/s)
Visibility: 10 or more miles (16+ km)
Ceiling: at least 12,000 feet AGL
Clouds: scattered clouds at 3100 feet AGL
Present Weather: no significant weather observed at this time
KMLB 182153Z 07008KT 10SM SCT031 24/19 A3008 RMK AO2 SLP186 T02440194

Conditions at: KMLB observed 18 November 2018  20:53 UTC
Temperature: 25.6°C (78°F)
Dewpoint: 18.9°C (66°F) [RH = 67%]
Pressure (altimeter): 30.09 inches Hg (1019.0 mb)
[Sea-level pressure: 1018.9 mb]
Winds: from the ENE (60 degrees) at 9 MPH (8 knots; 4.2 m/s)
Visibility: 10 or more miles (16+ km)
Ceiling: at least 12,000 feet AGL
Clouds: scattered clouds at 3000 feet AGL
Present Weather: no significant weather observed at this time
KMLB 182053Z 06008KT 10SM SCT030 26/19 A3009 RMK AO2 SLP189 T02560189 55008

Conditions at: KMLB observed 18 November 2018  19:53 UTC
Temperature: 26.1°C (79°F)
Dewpoint: 18.9°C (66°F) [RH = 65%]
Pressure (altimeter): 30.08 inches Hg (1018.7 mb)
[Sea-level pressure: 1018.6 mb]
Winds: from the E (90 degrees) at 12 MPH (10 knots; 5.2 m/s)
Visibility: 10 or more miles (16+ km)
Ceiling: at least 12,000 feet AGL
Clouds: scattered clouds at 3500 feet AGL
Present Weather: no significant weather observed at this time
KMLB 181953Z COR 09010KT 10SM SCT035 26/19 A3008 RMK AO2 SLP186 T02610189

Conditions at: KMLB observed 18 November 2018  18:53 UTC
Temperature: 25.6°C (78°F)
Dewpoint: 18.3°C (65°F) [RH = 64%]
Pressure (altimeter): 30.09 inches Hg (1019.0 mb)
[Sea-level pressure: 1018.8 mb]
Winds: from the E (100 degrees) at 9 MPH (8 knots; 4.2 m/s)
Visibility: 10 or more miles (16+ km)
Ceiling: 8000 feet AGL
Clouds: overcast cloud deck at 8000 feet AGL
Present Weather: no significant weather observed at this time
KMLB 181853Z 10008KT 10SM OVC080 26/18 A3009 RMK AO2 SLP188 VCSH T02560183

Conditions at: KMLB observed 18 November 2018  17:53 UTC
Temperature: 26.1°C (79°F)
Dewpoint: 18.3°C (65°F) [RH = 62%]
Pressure (altimeter): 30.11 inches Hg (1019.7 mb)
[Sea-level pressure: 1019.7 mb]
Winds: from the E (80 degrees) at 8 MPH (7 knots; 3.6 m/s)
Visibility: 10 or more miles (16+ km)
Ceiling: at least 12,000 feet AGL
Clouds: scattered clouds at 4000 feet AGL
scattered clouds at 5000 feet AGL
Present Weather: no significant weather observed at this time
KMLB 181753Z 08007KT 10SM SCT040 SCT050 26/18 A3011 RMK AO2 SLP197 T02610183 10272 20139 58016

Conditions at: KMLB observed 18 November 2018  16:53 UTC
Temperature: 26.7°C (80°F)
Dewpoint: 18.3°C (65°F) [RH = 60%]
Pressure (altimeter): 30.15 inches Hg (1021.1 mb)
[Sea-level pressure: 1020.8 mb]
Winds: from the ENE (60 degrees) at 9 MPH (8 knots; 4.2 m/s)
Visibility: 10 or more miles (16+ km)
Ceiling: at least 12,000 feet AGL
Clouds: scattered clouds at 4000 feet AGL
scattered clouds at 5000 feet AGL
Present Weather: no significant weather observed at this time
KMLB 181653Z 06008KT 10SM SCT040 SCT050 27/18 A3015 RMK AO2 SLP208 T02670183

Conditions at: KMLB observed 18 November 2018  15:53 UTC
Temperature: 26.7°C (80°F)
Dewpoint: 17.8°C (64°F) [RH = 58%]
Pressure (altimeter): 30.16 inches Hg (1021.4 mb)
[Sea-level pressure: 1021.2 mb]
Winds: from the NE (40 degrees) at 9 MPH (8 knots; 4.2 m/s)
Visibility: 10 or more miles (16+ km)
Ceiling: at least 12,000 feet AGL
Clouds: few clouds at 4400 feet AGL
scattered clouds at 6000 feet AGL
Present Weather: no significant weather observed at this time
KMLB 181553Z 04008KT 10SM FEW044 SCT060 27/18 A3016 RMK AO2 SLP212 T02670178

Conditions at: KMLB observed 18 November 2018  14:53 UTC
Temperature: 26.1°C (79°F)
Dewpoint: 17.2°C (63°F) [RH = 58%]
Pressure (altimeter): 30.16 inches Hg (1021.4 mb)
[Sea-level pressure: 1021.3 mb]
Winds: from the N (360 degrees) at 8 MPH (7 knots; 3.6 m/s)
Visibility: 10 or more miles (16+ km)
Ceiling: at least 12,000 feet AGL
Clouds: scattered clouds at 4000 feet AGL
Present Weather: no significant weather observed at this time
KMLB 181453Z 36007KT 10SM SCT040 26/17 A3016 RMK AO2 SLP213 T02610172 51014

Conditions at: KMLB observed 18 November 2018  13:53 UTC
Temperature: 21.1°C (70°F)
Dewpoint: 16.7°C (62°F) [RH = 76%]
Pressure (altimeter): 30.15 inches Hg (1021.1 mb)
[Sea-level pressure: 1021.0 mb]
Winds: from the NNW (330 degrees) at 3 MPH (3 knots; 1.6 m/s)
Visibility: 10 or more miles (16+ km)
Ceiling: at least 12,000 feet AGL
Clouds: few clouds at 4000 feet AGL
Present Weather: no significant weather observed at this time
KMLB 181353Z 33003KT 10SM FEW040 21/17 A3015 RMK AO2 SLP210 T02110167

Conditions at: KMLB observed 18 November 2018  12:53 UTC
Temperature: 16.1°C (61°F)
Dewpoint: 14.4°C (58°F) [RH = 90%]
Pressure (altimeter): 30.14 inches Hg (1020.7 mb)
[Sea-level pressure: 1020.5 mb]
Winds: from the NW (310 degrees) at 5 MPH (4 knots; 2.1 m/s)
Visibility: 10 or more miles (16+ km)
Ceiling: at least 12,000 feet AGL
Clouds: scattered clouds at 4000 feet AGL
Present Weather: no significant weather observed at this time
KMLB 181253Z 31004KT 10SM SCT040 16/14 A3014 RMK AO2 SLP205 T01610144

Conditions at: KMLB observed 18 November 2018  11:53 UTC
Temperature: 13.9°C (57°F)
Dewpoint: 13.3°C (56°F) [RH = 96%]
Pressure (altimeter): 30.12 inches Hg (1020.1 mb)
[Sea-level pressure: 1019.9 mb]
Winds: from the NW (320 degrees) at 3 MPH (3 knots; 1.6 m/s)
Visibility: 10 or more miles (16+ km)
Ceiling: at least 12,000 feet AGL
Clouds: sky clear below 12,000 feet AGL
Present Weather: no significant weather observed at this time
KMLB 181153Z 32003KT 10SM CLR 14/13 A3012 RMK AO2 SLP199 T01390133 10156 20139 51010

Conditions at: KMLB observed 18 November 2018  10:53 UTC
Temperature: 13.9°C (57°F)
Dewpoint: 12.8°C (55°F) [RH = 93%]
Pressure (altimeter): 30.12 inches Hg (1020.1 mb)
[Sea-level pressure: 1019.8 mb]
Winds: from the WNW (290 degrees) at 7 MPH (6 knots; 3.1 m/s)
Visibility: 10 or more miles (16+ km)
Ceiling: at least 12,000 feet AGL
Clouds: sky clear below 12,000 feet AGL
Present Weather: no significant weather observed at this time
KMLB 181053Z 29006KT 10SM CLR 14/13 A3012 RMK AO2 SLP198 T01390128

Conditions at: KMLB observed 18 November 2018  09:53 UTC
Temperature: 14.4°C (58°F)
Dewpoint: 13.3°C (56°F) [RH = 93%]
Pressure (altimeter): 30.10 inches Hg (1019.4 mb)
[Sea-level pressure: 1019.4 mb]
Winds: from the WNW (300 degrees) at 5 MPH (4 knots; 2.1 m/s)
Visibility: 10 or more miles (16+ km)
Ceiling: at least 12,000 feet AGL
Clouds: few clouds at 4700 feet AGL
Present Weather: no significant weather observed at this time
KMLB 180953Z 30004KT 10SM FEW047 14/13 A3010 RMK AO2 SLP194 T01440133

Conditions at: KMLB observed 18 November 2018  08:53 UTC
Temperature: 15.0°C (59°F)
Dewpoint: 13.9°C (57°F) [RH = 93%]
Pressure (altimeter): 30.09 inches Hg (1019.0 mb)
[Sea-level pressure: 1018.9 mb]
Winds: from the W (270 degrees) at 5 MPH (4 knots; 2.1 m/s)
Visibility: 10 or more miles (16+ km)
Ceiling: at least 12,000 feet AGL
Clouds: sky clear below 12,000 feet AGL
Present Weather: no significant weather observed at this time
KMLB 180853Z 27004KT 10SM CLR 15/14 A3009 RMK AO2 SLP189 T01500139 58002

Conditions at: KMLB observed 18 November 2018  07:53 UTC
Temperature: 14.4°C (58°F)
Dewpoint: 13.3°C (56°F) [RH = 93%]
Pressure (altimeter): 30.09 inches Hg (1019.0 mb)
[Sea-level pressure: 1019.0 mb]
Winds: from the NW (310 degrees) at 7 MPH (6 knots; 3.1 m/s)
Visibility: 10 or more miles (16+ km)
Ceiling: at least 12,000 feet AGL
Clouds: sky clear below 12,000 feet AGL
Present Weather: no significant weather observed at this time
KMLB 180753Z 31006KT 10SM CLR 14/13 A3009 RMK AO2 SLP190 T01440133

Conditions at: KMLB observed 18 November 2018  06:53 UTC
Temperature: 15.0°C (59°F)
Dewpoint: 13.3°C (56°F) [RH = 90%]
Pressure (altimeter): 30.10 inches Hg (1019.4 mb)
[Sea-level pressure: 1019.1 mb]
Winds: from the WNW (300 degrees) at 5 MPH (4 knots; 2.1 m/s)
Visibility: 10 or more miles (16+ km)
Ceiling: at least 12,000 feet AGL
Clouds: sky clear below 12,000 feet AGL
Present Weather: no significant weather observed at this time
KMLB 180653Z 30004KT 10SM CLR 15/13 A3010 RMK AO2 SLP191 T01500133

Conditions at: KMLB observed 18 November 2018  05:53 UTC
Temperature: 15.0°C (59°F)
Dewpoint: 13.9°C (57°F) [RH = 93%]
Pressure (altimeter): 30.10 inches Hg (1019.4 mb)
[Sea-level pressure: 1019.1 mb]
Winds: from the WNW (300 degrees) at 5 MPH (4 knots; 2.1 m/s)
Visibility: 10 or more miles (16+ km)
Ceiling: at least 12,000 feet AGL
Clouds: few clouds at 4300 feet AGL
Present Weather: no significant weather observed at this time
KMLB 180553Z 30004KT 10SM FEW043 15/14 A3010 RMK AO2 SLP191 T01500139 10206 20150 56014

Conditions at: KMLB observed 18 November 2018  04:53 UTC
Temperature: 15.0°C (59°F)
Dewpoint: 13.3°C (56°F) [RH = 90%]
Pressure (altimeter): 30.11 inches Hg (1019.7 mb)
[Sea-level pressure: 1019.5 mb]
Winds: from the WNW (300 degrees) at 6 MPH (5 knots; 2.6 m/s)
Visibility: 10 or more miles (16+ km)
Ceiling: at least 12,000 feet AGL
Clouds: sky clear below 12,000 feet AGL
Present Weather: no significant weather observed at this time
KMLB 180453Z 30005KT 10SM CLR 15/13 A3011 RMK AO2 SLP195 T01500133 402560100

Conditions at: KMLB observed 18 November 2018  03:53 UTC
Temperature: 16.1°C (61°F)
Dewpoint: 14.4°C (58°F) [RH = 90%]
Pressure (altimeter): 30.12 inches Hg (1020.1 mb)
[Sea-level pressure: 1020.0 mb]
Winds: calm
Visibility: 10 or more miles (16+ km)
Ceiling: at least 12,000 feet AGL
Clouds: few clouds at 4400 feet AGL
Present Weather: no significant weather observed at this time
KMLB 180353Z 00000KT 10SM FEW044 16/14 A3012 RMK AO2 SLP200 T01610144

Conditions at: KMLB observed 18 November 2018  02:53 UTC
Temperature: 16.1°C (61°F)
Dewpoint: 14.4°C (58°F) [RH = 90%]
Pressure (altimeter): 30.14 inches Hg (1020.7 mb)
[Sea-level pressure: 1020.5 mb]
Winds: from the NW (310 degrees) at 5 MPH (4 knots; 2.1 m/s)
Visibility: 10 or more miles (16+ km)
Ceiling: at least 12,000 feet AGL
Clouds: few clouds at 4900 feet AGL
Present Weather: no significant weather observed at this time
KMLB 180253Z 31004KT 10SM FEW049 16/14 A3014 RMK AO2 SLP205 T01610144 51002

Conditions at: KMLB observed 18 November 2018  01:53 UTC
Temperature: 16.7°C (62°F)
Dewpoint: 14.4°C (58°F) [RH = 86%]
Pressure (altimeter): 30.14 inches Hg (1020.7 mb)
[Sea-level pressure: 1020.4 mb]
Winds: from the NNW (330 degrees) at 6 MPH (5 knots; 2.6 m/s)
Visibility: 10 or more miles (16+ km)
Ceiling: at least 12,000 feet AGL
Clouds: sky clear below 12,000 feet AGL
Present Weather: no significant weather observed at this time
KMLB 180153Z 33005KT 10SM CLR 17/14 A3014 RMK AO2 SLP204 T01670144

Conditions at: KMLB observed 18 November 2018  00:53 UTC
Temperature: 16.7°C (62°F)
Dewpoint: 12.8°C (55°F) [RH = 78%]
Pressure (altimeter): 30.14 inches Hg (1020.7 mb)
[Sea-level pressure: 1020.6 mb]
Winds: from the NW (310 degrees) at 6 MPH (5 knots; 2.6 m/s)
Visibility: 10 or more miles (16+ km)
Ceiling: at least 12,000 feet AGL
Clouds: sky clear below 12,000 feet AGL
Present Weather: no significant weather observed at this time
KMLB 180053Z 31005KT 10SM CLR 17/13 A3014 RMK AO2 SLP206 T01670128

Conditions at: KMLB observed 17 November 2018  23:53 UTC
Temperature: 20.6°C (69°F)
Dewpoint: 12.8°C (55°F) [RH = 61%]
Pressure (altimeter): 30.13 inches Hg (1020.4 mb)
[Sea-level pressure: 1020.3 mb]
Winds: from the NNE (20 degrees) at 6 MPH (5 knots; 2.6 m/s)
Visibility: 10 or more miles (16+ km)
Ceiling: at least 12,000 feet AGL
Clouds: sky clear below 12,000 feet AGL
Present Weather: no significant weather observed at this time
KMLB 172353Z 02005KT 10SM CLR 21/13 A3013 RMK AO2 SLP203 T02060128 10256 20206 53011

Conditions at: KMLB observed 17 November 2018  22:53 UTC
Temperature: 21.1°C (70°F)
Dewpoint: 12.8°C (55°F) [RH = 59%]
Pressure (altimeter): 30.12 inches Hg (1020.1 mb)
[Sea-level pressure: 1019.9 mb]
Winds: from the NNE (30 degrees) at 6 MPH (5 knots; 2.6 m/s)
Visibility: 10 or more miles (16+ km)
Ceiling: at least 12,000 feet AGL
Clouds: sky clear below 12,000 feet AGL
Present Weather: no significant weather observed at this time
KMLB 172253Z 03005KT 10SM CLR 21/13 A3012 RMK AO2 SLP199 T02110128

Conditions at: KMLB observed 17 November 2018  21:53 UTC
Temperature: 22.8°C (73°F)
Dewpoint: 12.8°C (55°F) [RH = 53%]
Pressure (altimeter): 30.11 inches Hg (1019.7 mb)
[Sea-level pressure: 1019.5 mb]
Winds: from the NNE (30 degrees) at 8 MPH (7 knots; 3.6 m/s)
Visibility: 10 or more miles (16+ km)
Ceiling: at least 12,000 feet AGL
Clouds: few clouds at 5000 feet AGL
Present Weather: no significant weather observed at this time
KMLB 172153Z 03007KT 10SM FEW050 23/13 A3011 RMK AO2 SLP195 T02280128

Conditions at: KMLB observed 17 November 2018  20:53 UTC
Temperature: 23.3°C (74°F)
Dewpoint: 13.3°C (56°F) [RH = 53%]
Pressure (altimeter): 30.10 inches Hg (1019.4 mb)
[Sea-level pressure: 1019.2 mb]
Winds: from the NE (40 degrees) at 9 MPH (8 knots; 4.2 m/s)
Visibility: 10 or more miles (16+ km)
Ceiling: at least 12,000 feet AGL
Clouds: scattered clouds at 4600 feet AGL
Present Weather: no significant weather observed at this time
KMLB 172053Z 04008KT 10SM SCT046 23/13 A3010 RMK AO2 SLP192 T02330133 55007

Conditions at: KMLB observed 17 November 2018  19:53 UTC
Temperature: 25.0°C (77°F)
Dewpoint: 13.9°C (57°F) [RH = 50%]
Pressure (altimeter): 30.10 inches Hg (1019.4 mb)
[Sea-level pressure: 1019.1 mb]
Winds: from the NNE (30 degrees) at 12 MPH (10 knots; 5.2 m/s)
Visibility: 10 or more miles (16+ km)
Ceiling: at least 12,000 feet AGL
Clouds: few clouds at 4500 feet AGL
Present Weather: no significant weather observed at this time
KMLB 171953Z 03010KT 10SM FEW045 25/14 A3010 RMK AO2 SLP191 T02500139

Conditions at: KMLB observed 17 November 2018  18:53 UTC
Temperature: 25.0°C (77°F)
Dewpoint: 13.9°C (57°F) [RH = 50%]
Pressure (altimeter): 30.10 inches Hg (1019.4 mb)
[Sea-level pressure: 1019.0 mb]
Winds: from the NE (50 degrees) at 10 MPH (9 knots; 4.7 m/s)
Visibility: 10 or more miles (16+ km)
Ceiling: 4100 feet AGL
Clouds: broken clouds at 4100 feet AGL
Present Weather: no significant weather observed at this time
KMLB 171853Z 05009KT 10SM BKN041 25/14 A3010 RMK AO2 SLP190 T02500139

Conditions at: KMLB observed 17 November 2018  17:53 UTC
Temperature: 24.4°C (76°F)
Dewpoint: 15.6°C (60°F) [RH = 58%]
Pressure (altimeter): 30.12 inches Hg (1020.1 mb)
[Sea-level pressure: 1019.9 mb]
Winds: from the N (10 degrees) at 10 MPH (9 knots; 4.7 m/s)
Visibility: 10 or more miles (16+ km)
Ceiling: at least 12,000 feet AGL
Clouds: sky clear below 12,000 feet AGL
Present Weather: no significant weather observed at this time
KMLB 171753Z 01009KT 10SM CLR 24/16 A3012 RMK AO2 SLP199 T02440156 10250 20106 58020

Conditions at: KMLB observed 17 November 2018  16:53 UTC
Temperature: 23.3°C (74°F)
Dewpoint: 15.0°C (59°F) [RH = 60%]
Pressure (altimeter): 30.14 inches Hg (1020.7 mb)
[Sea-level pressure: 1020.7 mb]
Winds: from the N (360 degrees) at 12 MPH (10 knots; 5.2 m/s)
Visibility: 10 or more miles (16+ km)
Ceiling: at least 12,000 feet AGL
Clouds: few clouds at 3600 feet AGL
Present Weather: no significant weather observed at this time
KMLB 171653Z 36010KT 10SM FEW036 23/15 A3014 RMK AO2 SLP207 T02330150

Conditions at: KMLB observed 17 November 2018  15:53 UTC
Temperature: 22.8°C (73°F)
Dewpoint: 14.4°C (58°F) [RH = 59%]
Pressure (altimeter): 30.16 inches Hg (1021.4 mb)
[Sea-level pressure: 1021.3 mb]
Winds: from the N (360 degrees) at 13 MPH (11 knots; 5.7 m/s)
Visibility: 10 or more miles (16+ km)
Ceiling: at least 12,000 feet AGL
Clouds: sky clear below 12,000 feet AGL
Present Weather: no significant weather observed at this time
KMLB 171553Z 36011KT 10SM CLR 23/14 A3016 RMK AO2 SLP213 T02280144

Conditions at: KMLB observed 17 November 2018  14:53 UTC
Temperature: 20.6°C (69°F)
Dewpoint: 12.8°C (55°F) [RH = 61%]
Pressure (altimeter): 30.18 inches Hg (1022.1 mb)
[Sea-level pressure: 1021.9 mb]
Winds: from the NNW (330 degrees) at 10 MPH (9 knots; 4.7 m/s)
Visibility: 10 or more miles (16+ km)
Ceiling: at least 12,000 feet AGL
Clouds: sky clear below 12,000 feet AGL
Present Weather: no significant weather observed at this time
KMLB 171453Z 33009KT 10SM CLR 21/13 A3018 RMK AO2 SLP219 T02060128 51010

Conditions at: KMLB observed 17 November 2018  13:53 UTC
Temperature: 17.2°C (63°F)
Dewpoint: 11.1°C (52°F) [RH = 67%]
Pressure (altimeter): 30.18 inches Hg (1022.1 mb)
[Sea-level pressure: 1021.8 mb]
Winds: from the NNW (330 degrees) at 9 MPH (8 knots; 4.2 m/s)
Visibility: 10 or more miles (16+ km)
Ceiling: at least 12,000 feet AGL
Clouds: sky clear below 12,000 feet AGL
Present Weather: no significant weather observed at this time
KMLB 171353Z 33008KT 10SM CLR 17/11 A3018 RMK AO2 SLP218 T01720111

Conditions at: KMLB observed 17 November 2018  12:53 UTC
Temperature: 13.9°C (57°F)
Dewpoint: 9.4°C (49°F) [RH = 74%]
Pressure (altimeter): 30.17 inches Hg (1021.8 mb)
[Sea-level pressure: 1021.4 mb]
Winds: from the NW (320 degrees) at 8 MPH (7 knots; 3.6 m/s)
Visibility: 10 or more miles (16+ km)
Ceiling: at least 12,000 feet AGL
Clouds: sky clear below 12,000 feet AGL
Present Weather: no significant weather observed at this time
KMLB 171253Z 32007KT 10SM CLR 14/09 A3017 RMK AO2 SLP214 T01390094

Conditions at: KMLB observed 17 November 2018  11:53 UTC
Temperature: 10.6°C (51°F)
Dewpoint: 7.2°C (45°F) [RH = 79%]
Pressure (altimeter): 30.15 inches Hg (1021.1 mb)
[Sea-level pressure: 1020.9 mb]
Winds: from the NW (320 degrees) at 8 MPH (7 knots; 3.6 m/s)
Visibility: 10 or more miles (16+ km)
Ceiling: at least 12,000 feet AGL
Clouds: sky clear below 12,000 feet AGL
Present Weather: no significant weather observed at this time
KMLB 171153Z 32007KT 10SM CLR 11/07 A3015 RMK AO2 SLP209 T01060072 10117 20100 53012